sensor_id;sensor_type;location;lat;lon;timestamp;P1;durP1;ratioP1;P2;durP2;ratioP2
7158;SDS011;63175;52.374;13.132;2022-10-31T00:01:43;7.50;;;6.80;;
7158;SDS011;63175;52.374;13.132;2022-10-31T00:04:12;7.87;;;7.17;;
7158;SDS011;63175;52.374;13.132;2022-10-31T00:06:38;8.07;;;7.23;;
7158;SDS011;63175;52.374;13.132;2022-10-31T00:09:05;8.27;;;7.03;;
7158;SDS011;63175;52.374;13.132;2022-10-31T00:11:32;8.23;;;7.43;;
7158;SDS011;63175;52.374;13.132;2022-10-31T00:13:59;9.20;;;7.17;;
7158;SDS011;63175;52.374;13.132;2022-10-31T00:16:26;8.20;;;7.30;;
7158;SDS011;63175;52.374;13.132;2022-10-31T00:18:54;8.47;;;7.60;;
7158;SDS011;63175;52.374;13.132;2022-10-31T00:21:24;13.23;;;7.90;;
7158;SDS011;63175;52.374;13.132;2022-10-31T00:23:52;8.17;;;7.30;;
7158;SDS011;63175;52.374;13.132;2022-10-31T00:26:19;13.40;;;8.50;;
7158;SDS011;63175;52.374;13.132;2022-10-31T00:28:45;9.70;;;7.40;;
7158;SDS011;63175;52.374;13.132;2022-10-31T00:31:12;10.00;;;6.87;;
7158;SDS011;63175;52.374;13.132;2022-10-31T00:33:40;10.70;;;7.70;;
7158;SDS011;63175;52.374;13.132;2022-10-31T00:36:08;8.20;;;7.40;;
7158;SDS011;63175;52.374;13.132;2022-10-31T00:38:39;8.43;;;6.77;;
7158;SDS011;63175;52.374;13.132;2022-10-31T00:41:06;8.73;;;6.97;;
7158;SDS011;63175;52.374;13.132;2022-10-31T00:43:33;8.37;;;7.10;;
7158;SDS011;63175;52.374;13.132;2022-10-31T00:45:59;8.00;;;7.07;;
7158;SDS011;63175;52.374;13.132;2022-10-31T00:48:26;7.40;;;6.33;;
7158;SDS011;63175;52.374;13.132;2022-10-31T00:50:53;8.17;;;6.57;;
7158;SDS011;63175;52.374;13.132;2022-10-31T00:53:20;8.03;;;6.70;;
7158;SDS011;63175;52.374;13.132;2022-10-31T00:55:48;6.77;;;6.03;;
7158;SDS011;63175;52.374;13.132;2022-10-31T00:58:15;6.87;;;6.17;;
7158;SDS011;63175;52.374;13.132;2022-10-31T01:00:42;9.33;;;7.70;;
7158;SDS011;63175;52.374;13.132;2022-10-31T01:03:09;8.00;;;7.00;;
7158;SDS011;63175;52.374;13.132;2022-10-31T01:05:36;8.27;;;7.37;;
7158;SDS011;63175;52.374;13.132;2022-10-31T01:08:03;7.93;;;7.20;;
7158;SDS011;63175;52.374;13.132;2022-10-31T01:10:30;7.17;;;6.43;;
7158;SDS011;63175;52.374;13.132;2022-10-31T01:12:58;8.30;;;6.60;;
7158;SDS011;63175;52.374;13.132;2022-10-31T01:15:25;7.90;;;7.10;;
7158;SDS011;63175;52.374;13.132;2022-10-31T01:17:52;8.40;;;7.60;;
7158;SDS011;63175;52.374;13.132;2022-10-31T01:20:19;6.90;;;6.30;;
7158;SDS011;63175;52.374;13.132;2022-10-31T01:22:45;7.87;;;6.70;;
7158;SDS011;63175;52.374;13.132;2022-10-31T01:25:12;8.20;;;7.27;;
7158;SDS011;63175;52.374;13.132;2022-10-31T01:27:39;9.20;;;6.67;;
7158;SDS011;63175;52.374;13.132;2022-10-31T01:30:08;11.90;;;6.47;;
7158;SDS011;63175;52.374;13.132;2022-10-31T01:32:35;8.33;;;6.60;;
7158;SDS011;63175;52.374;13.132;2022-10-31T01:35:02;8.30;;;6.90;;
7158;SDS011;63175;52.374;13.132;2022-10-31T01:37:30;9.70;;;7.10;;
7158;SDS011;63175;52.374;13.132;2022-10-31T01:39:57;11.90;;;8.63;;
7158;SDS011;63175;52.374;13.132;2022-10-31T01:42:24;7.73;;;6.90;;
7158;SDS011;63175;52.374;13.132;2022-10-31T01:44:52;7.77;;;6.73;;
7158;SDS011;63175;52.374;13.132;2022-10-31T01:50:10;7.30;;;6.70;;
7158;SDS011;63175;52.374;13.132;2022-10-31T01:52:50;6.80;;;6.20;;
7158;SDS011;63175;52.374;13.132;2022-10-31T01:55:19;6.93;;;6.33;;
7158;SDS011;63175;52.374;13.132;2022-10-31T01:57:50;8.57;;;7.67;;
7158;SDS011;63175;52.374;13.132;2022-10-31T02:00:20;8.73;;;7.07;;
7158;SDS011;63175;52.374;13.132;2022-10-31T02:02:49;7.47;;;6.40;;
7158;SDS011;63175;52.374;13.132;2022-10-31T02:05:18;7.90;;;7.10;;
7158;SDS011;63175;52.374;13.132;2022-10-31T02:07:48;8.47;;;6.63;;
7158;SDS011;63175;52.374;13.132;2022-10-31T02:10:21;7.60;;;6.80;;
7158;SDS011;63175;52.374;13.132;2022-10-31T02:12:49;6.80;;;6.00;;
7158;SDS011;63175;52.374;13.132;2022-10-31T02:15:17;9.17;;;7.00;;
7158;SDS011;63175;52.374;13.132;2022-10-31T02:17:44;9.33;;;6.90;;
7158;SDS011;63175;52.374;13.132;2022-10-31T02:20:14;7.20;;;6.50;;
7158;SDS011;63175;52.374;13.132;2022-10-31T02:22:49;8.60;;;6.50;;
7158;SDS011;63175;52.374;13.132;2022-10-31T02:25:48;7.57;;;6.83;;
7158;SDS011;63175;52.374;13.132;2022-10-31T02:28:34;6.50;;;5.90;;
7158;SDS011;63175;52.374;13.132;2022-10-31T02:31:20;7.33;;;6.70;;
7158;SDS011;63175;52.374;13.132;2022-10-31T02:33:56;9.40;;;6.70;;
7158;SDS011;63175;52.374;13.132;2022-10-31T02:36:25;7.27;;;6.23;;
7158;SDS011;63175;52.374;13.132;2022-10-31T02:38:57;7.07;;;6.37;;
7158;SDS011;63175;52.374;13.132;2022-10-31T02:41:35;7.77;;;5.70;;
7158;SDS011;63175;52.374;13.132;2022-10-31T02:44:12;5.97;;;5.50;;
7158;SDS011;63175;52.374;13.132;2022-10-31T02:46:48;6.60;;;6.00;;
7158;SDS011;63175;52.374;13.132;2022-10-31T02:49:18;5.80;;;5.00;;
7158;SDS011;63175;52.374;13.132;2022-10-31T02:51:50;8.17;;;5.70;;
7158;SDS011;63175;52.374;13.132;2022-10-31T02:54:18;10.23;;;6.33;;
7158;SDS011;63175;52.374;13.132;2022-10-31T02:56:47;7.97;;;7.13;;
7158;SDS011;63175;52.374;13.132;2022-10-31T02:59:17;5.73;;;5.23;;
7158;SDS011;63175;52.374;13.132;2022-10-31T03:02:02;6.50;;;5.90;;
7158;SDS011;63175;52.374;13.132;2022-10-31T03:04:42;6.03;;;5.53;;
7158;SDS011;63175;52.374;13.132;2022-10-31T03:07:20;7.00;;;5.77;;
7158;SDS011;63175;52.374;13.132;2022-10-31T03:09:57;6.93;;;6.30;;
7158;SDS011;63175;52.374;13.132;2022-10-31T03:12:30;13.30;;;9.23;;
7158;SDS011;63175;52.374;13.132;2022-10-31T03:15:06;11.20;;;9.53;;
7158;SDS011;63175;52.374;13.132;2022-10-31T03:17:42;10.50;;;9.27;;
7158;SDS011;63175;52.374;13.132;2022-10-31T03:20:16;8.43;;;7.63;;
7158;SDS011;63175;52.374;13.132;2022-10-31T03:22:46;7.93;;;7.13;;
7158;SDS011;63175;52.374;13.132;2022-10-31T03:25:13;5.77;;;5.20;;
7158;SDS011;63175;52.374;13.132;2022-10-31T03:27:41;7.17;;;6.47;;
7158;SDS011;63175;52.374;13.132;2022-10-31T03:30:10;5.27;;;4.87;;
7158;SDS011;63175;52.374;13.132;2022-10-31T03:32:38;6.70;;;5.90;;
7158;SDS011;63175;52.374;13.132;2022-10-31T03:35:09;6.30;;;5.70;;
7158;SDS011;63175;52.374;13.132;2022-10-31T03:37:39;6.77;;;4.77;;
7158;SDS011;63175;52.374;13.132;2022-10-31T03:40:08;5.77;;;5.27;;
7158;SDS011;63175;52.374;13.132;2022-10-31T03:42:38;5.60;;;5.10;;
7158;SDS011;63175;52.374;13.132;2022-10-31T03:45:08;8.43;;;5.40;;
7158;SDS011;63175;52.374;13.132;2022-10-31T03:47:38;5.53;;;5.03;;
7158;SDS011;63175;52.374;13.132;2022-10-31T03:50:09;6.27;;;5.70;;
7158;SDS011;63175;52.374;13.132;2022-10-31T03:52:41;5.30;;;4.80;;
7158;SDS011;63175;52.374;13.132;2022-10-31T03:55:13;5.63;;;5.10;;
7158;SDS011;63175;52.374;13.132;2022-10-31T03:57:45;5.97;;;5.43;;
7158;SDS011;63175;52.374;13.132;2022-10-31T04:00:18;6.43;;;5.80;;
7158;SDS011;63175;52.374;13.132;2022-10-31T04:02:46;8.83;;;5.20;;
7158;SDS011;63175;52.374;13.132;2022-10-31T04:05:18;7.23;;;6.17;;
7158;SDS011;63175;52.374;13.132;2022-10-31T04:07:46;7.27;;;6.57;;
7158;SDS011;63175;52.374;13.132;2022-10-31T04:10:16;6.23;;;5.63;;
7158;SDS011;63175;52.374;13.132;2022-10-31T04:12:46;6.17;;;5.30;;
7158;SDS011;63175;52.374;13.132;2022-10-31T04:15:17;6.40;;;5.80;;
7158;SDS011;63175;52.374;13.132;2022-10-31T04:17:45;7.00;;;6.10;;
7158;SDS011;63175;52.374;13.132;2022-10-31T04:20:15;8.93;;;6.37;;
7158;SDS011;63175;52.374;13.132;2022-10-31T04:22:43;7.80;;;6.93;;
7158;SDS011;63175;52.374;13.132;2022-10-31T04:25:10;8.57;;;7.63;;
7158;SDS011;63175;52.374;13.132;2022-10-31T04:27:37;7.33;;;6.40;;
7158;SDS011;63175;52.374;13.132;2022-10-31T04:30:04;7.20;;;5.87;;
7158;SDS011;63175;52.374;13.132;2022-10-31T04:32:32;6.20;;;5.57;;
7158;SDS011;63175;52.374;13.132;2022-10-31T04:34:59;7.47;;;6.67;;
7158;SDS011;63175;52.374;13.132;2022-10-31T04:37:25;5.93;;;5.33;;
7158;SDS011;63175;52.374;13.132;2022-10-31T04:39:54;5.67;;;4.83;;
7158;SDS011;63175;52.374;13.132;2022-10-31T04:42:20;6.07;;;5.47;;
7158;SDS011;63175;52.374;13.132;2022-10-31T04:44:47;5.33;;;4.83;;
7158;SDS011;63175;52.374;13.132;2022-10-31T04:47:14;5.20;;;4.80;;
7158;SDS011;63175;52.374;13.132;2022-10-31T04:49:41;6.00;;;5.40;;
7158;SDS011;63175;52.374;13.132;2022-10-31T04:52:08;8.83;;;4.57;;
7158;SDS011;63175;52.374;13.132;2022-10-31T04:54:35;6.43;;;4.53;;
7158;SDS011;63175;52.374;13.132;2022-10-31T04:57:03;5.10;;;4.70;;
7158;SDS011;63175;52.374;13.132;2022-10-31T04:59:30;5.00;;;4.60;;
7158;SDS011;63175;52.374;13.132;2022-10-31T05:01:57;5.23;;;4.73;;
7158;SDS011;63175;52.374;13.132;2022-10-31T05:04:23;7.93;;;5.20;;
7158;SDS011;63175;52.374;13.132;2022-10-31T05:06:50;5.37;;;4.90;;
7158;SDS011;63175;52.374;13.132;2022-10-31T05:09:17;7.53;;;4.70;;
7158;SDS011;63175;52.374;13.132;2022-10-31T05:11:44;5.20;;;4.77;;
7158;SDS011;63175;52.374;13.132;2022-10-31T05:14:12;6.90;;;5.03;;
7158;SDS011;63175;52.374;13.132;2022-10-31T05:16:39;4.73;;;4.33;;
7158;SDS011;63175;52.374;13.132;2022-10-31T05:19:06;5.40;;;4.90;;
7158;SDS011;63175;52.374;13.132;2022-10-31T05:21:32;6.93;;;4.90;;
7158;SDS011;63175;52.374;13.132;2022-10-31T05:24:00;5.37;;;4.87;;
7158;SDS011;63175;52.374;13.132;2022-10-31T05:26:27;7.00;;;5.00;;
7158;SDS011;63175;52.374;13.132;2022-10-31T05:28:54;5.40;;;4.87;;
7158;SDS011;63175;52.374;13.132;2022-10-31T05:31:22;5.47;;;5.07;;
7158;SDS011;63175;52.374;13.132;2022-10-31T05:33:49;4.90;;;4.50;;
7158;SDS011;63175;52.374;13.132;2022-10-31T05:36:16;7.77;;;5.10;;
7158;SDS011;63175;52.374;13.132;2022-10-31T05:38:43;5.47;;;4.63;;
7158;SDS011;63175;52.374;13.132;2022-10-31T05:41:10;6.43;;;4.20;;
7158;SDS011;63175;52.374;13.132;2022-10-31T05:43:37;5.07;;;4.50;;
7158;SDS011;63175;52.374;13.132;2022-10-31T05:46:03;4.77;;;4.37;;
7158;SDS011;63175;52.374;13.132;2022-10-31T05:48:32;4.87;;;4.47;;
7158;SDS011;63175;52.374;13.132;2022-10-31T05:50:58;5.00;;;4.60;;
7158;SDS011;63175;52.374;13.132;2022-10-31T05:53:25;5.47;;;4.90;;
7158;SDS011;63175;52.374;13.132;2022-10-31T05:55:52;5.60;;;5.00;;
7158;SDS011;63175;52.374;13.132;2022-10-31T05:58:19;5.10;;;4.63;;
7158;SDS011;63175;52.374;13.132;2022-10-31T06:00:46;7.17;;;4.73;;
7158;SDS011;63175;52.374;13.132;2022-10-31T06:03:13;5.03;;;4.63;;
7158;SDS011;63175;52.374;13.132;2022-10-31T06:05:41;5.43;;;5.03;;
7158;SDS011;63175;52.374;13.132;2022-10-31T06:08:08;6.37;;;4.93;;
7158;SDS011;63175;52.374;13.132;2022-10-31T06:10:34;5.67;;;5.10;;
7158;SDS011;63175;52.374;13.132;2022-10-31T06:13:01;8.13;;;5.00;;
7158;SDS011;63175;52.374;13.132;2022-10-31T06:15:28;6.70;;;5.30;;
7158;SDS011;63175;52.374;13.132;2022-10-31T06:17:59;5.60;;;5.10;;
7158;SDS011;63175;52.374;13.132;2022-10-31T06:20:27;5.00;;;4.60;;
7158;SDS011;63175;52.374;13.132;2022-10-31T06:22:55;9.50;;;4.70;;
7158;SDS011;63175;52.374;13.132;2022-10-31T06:25:21;6.40;;;5.73;;
7158;SDS011;63175;52.374;13.132;2022-10-31T06:27:49;6.90;;;5.80;;
7158;SDS011;63175;52.374;13.132;2022-10-31T06:30:15;7.23;;;5.80;;
7158;SDS011;63175;52.374;13.132;2022-10-31T06:32:42;6.93;;;5.73;;
7158;SDS011;63175;52.374;13.132;2022-10-31T06:35:09;6.60;;;5.70;;
7158;SDS011;63175;52.374;13.132;2022-10-31T06:37:36;6.70;;;5.77;;
7158;SDS011;63175;52.374;13.132;2022-10-31T06:40:05;6.87;;;6.03;;
7158;SDS011;63175;52.374;13.132;2022-10-31T06:42:32;5.53;;;5.03;;
7158;SDS011;63175;52.374;13.132;2022-10-31T06:44:59;5.93;;;5.33;;
7158;SDS011;63175;52.374;13.132;2022-10-31T06:47:26;5.50;;;5.00;;
7158;SDS011;63175;52.374;13.132;2022-10-31T06:49:52;5.27;;;4.87;;
7158;SDS011;63175;52.374;13.132;2022-10-31T06:52:19;6.30;;;5.47;;
7158;SDS011;63175;52.374;13.132;2022-10-31T06:54:48;6.63;;;5.50;;
7158;SDS011;63175;52.374;13.132;2022-10-31T06:57:16;6.10;;;5.50;;
7158;SDS011;63175;52.374;13.132;2022-10-31T06:59:43;6.97;;;5.50;;
7158;SDS011;63175;52.374;13.132;2022-10-31T07:02:10;6.87;;;6.13;;
7158;SDS011;63175;52.374;13.132;2022-10-31T07:04:37;10.30;;;5.47;;
7158;SDS011;63175;52.374;13.132;2022-10-31T07:07:04;7.67;;;4.93;;
7158;SDS011;63175;52.374;13.132;2022-10-31T07:09:31;15.30;;;8.13;;
7158;SDS011;63175;52.374;13.132;2022-10-31T07:11:57;11.53;;;6.87;;
7158;SDS011;63175;52.374;13.132;2022-10-31T07:14:26;15.43;;;6.67;;
7158;SDS011;63175;52.374;13.132;2022-10-31T07:16:52;8.27;;;6.10;;
7158;SDS011;63175;52.374;13.132;2022-10-31T07:19:19;6.57;;;5.87;;
7158;SDS011;63175;52.374;13.132;2022-10-31T07:21:46;9.53;;;6.10;;
7158;SDS011;63175;52.374;13.132;2022-10-31T07:24:13;7.13;;;6.43;;
7158;SDS011;63175;52.374;13.132;2022-10-31T07:26:39;7.77;;;6.20;;
7158;SDS011;63175;52.374;13.132;2022-10-31T07:29:07;7.23;;;6.13;;
7158;SDS011;63175;52.374;13.132;2022-10-31T07:31:35;8.73;;;7.20;;
7158;SDS011;63175;52.374;13.132;2022-10-31T07:34:02;10.27;;;6.77;;
7158;SDS011;63175;52.374;13.132;2022-10-31T07:36:29;11.10;;;8.10;;
7158;SDS011;63175;52.374;13.132;2022-10-31T07:38:55;11.93;;;9.47;;
7158;SDS011;63175;52.374;13.132;2022-10-31T07:41:23;13.67;;;7.57;;
7158;SDS011;63175;52.374;13.132;2022-10-31T07:43:50;9.03;;;8.13;;
7158;SDS011;63175;52.374;13.132;2022-10-31T07:46:17;12.10;;;7.50;;
7158;SDS011;63175;52.374;13.132;2022-10-31T07:48:45;20.50;;;9.53;;
7158;SDS011;63175;52.374;13.132;2022-10-31T07:51:12;12.63;;;8.90;;
7158;SDS011;63175;52.374;13.132;2022-10-31T07:53:39;12.47;;;9.43;;
7158;SDS011;63175;52.374;13.132;2022-10-31T07:56:06;15.10;;;10.23;;
7158;SDS011;63175;52.374;13.132;2022-10-31T07:58:33;17.00;;;12.17;;
7158;SDS011;63175;52.374;13.132;2022-10-31T08:00:59;16.73;;;11.57;;
7158;SDS011;63175;52.374;13.132;2022-10-31T08:03:26;17.10;;;10.30;;
7158;SDS011;63175;52.374;13.132;2022-10-31T08:05:55;15.90;;;11.27;;
7158;SDS011;63175;52.374;13.132;2022-10-31T08:08:22;13.47;;;10.80;;
7158;SDS011;63175;52.374;13.132;2022-10-31T08:10:52;14.40;;;10.53;;
7158;SDS011;63175;52.374;13.132;2022-10-31T08:13:20;14.97;;;11.50;;
7158;SDS011;63175;52.374;13.132;2022-10-31T08:15:47;14.20;;;9.87;;
7158;SDS011;63175;52.374;13.132;2022-10-31T08:18:15;11.97;;;9.20;;
7158;SDS011;63175;52.374;13.132;2022-10-31T08:20:42;10.40;;;9.40;;
7158;SDS011;63175;52.374;13.132;2022-10-31T08:23:11;13.90;;;9.60;;
7158;SDS011;63175;52.374;13.132;2022-10-31T08:25:39;10.90;;;9.80;;
7158;SDS011;63175;52.374;13.132;2022-10-31T08:28:07;13.10;;;10.87;;
7158;SDS011;63175;52.374;13.132;2022-10-31T08:30:36;14.97;;;11.30;;
7158;SDS011;63175;52.374;13.132;2022-10-31T08:33:04;15.03;;;10.93;;
7158;SDS011;63175;52.374;13.132;2022-10-31T08:35:31;18.80;;;11.50;;
7158;SDS011;63175;52.374;13.132;2022-10-31T08:37:59;17.83;;;12.10;;
7158;SDS011;63175;52.374;13.132;2022-10-31T08:40:28;22.43;;;12.33;;
7158;SDS011;63175;52.374;13.132;2022-10-31T08:42:56;16.60;;;13.17;;
7158;SDS011;63175;52.374;13.132;2022-10-31T08:45:27;23.63;;;13.30;;
7158;SDS011;63175;52.374;13.132;2022-10-31T08:47:57;18.00;;;11.67;;
7158;SDS011;63175;52.374;13.132;2022-10-31T08:50:25;15.33;;;10.60;;
7158;SDS011;63175;52.374;13.132;2022-10-31T08:52:53;16.17;;;11.77;;
7158;SDS011;63175;52.374;13.132;2022-10-31T08:55:19;13.87;;;10.33;;
7158;SDS011;63175;52.374;13.132;2022-10-31T08:57:48;12.30;;;10.03;;
7158;SDS011;63175;52.374;13.132;2022-10-31T09:00:20;15.00;;;11.17;;
7158;SDS011;63175;52.374;13.132;2022-10-31T09:02:46;13.20;;;10.10;;
7158;SDS011;63175;52.374;13.132;2022-10-31T09:05:13;11.77;;;9.23;;
7158;SDS011;63175;52.374;13.132;2022-10-31T09:07:40;13.53;;;10.43;;
7158;SDS011;63175;52.374;13.132;2022-10-31T09:10:07;17.40;;;11.40;;
7158;SDS011;63175;52.374;13.132;2022-10-31T09:12:34;15.93;;;11.43;;
7158;SDS011;63175;52.374;13.132;2022-10-31T09:15:02;14.00;;;10.80;;
7158;SDS011;63175;52.374;13.132;2022-10-31T09:17:31;14.10;;;9.80;;
7158;SDS011;63175;52.374;13.132;2022-10-31T09:19:58;12.10;;;9.43;;
7158;SDS011;63175;52.374;13.132;2022-10-31T09:22:25;14.13;;;10.43;;
7158;SDS011;63175;52.374;13.132;2022-10-31T09:24:51;24.57;;;13.07;;
7158;SDS011;63175;52.374;13.132;2022-10-31T09:27:18;28.10;;;14.80;;
7158;SDS011;63175;52.374;13.132;2022-10-31T09:29:45;23.70;;;13.00;;
7158;SDS011;63175;52.374;13.132;2022-10-31T09:32:13;28.10;;;12.57;;
7158;SDS011;63175;52.374;13.132;2022-10-31T09:34:40;17.97;;;13.50;;
7158;SDS011;63175;52.374;13.132;2022-10-31T09:37:07;17.77;;;12.90;;
7158;SDS011;63175;52.374;13.132;2022-10-31T09:39:34;21.90;;;12.90;;
7158;SDS011;63175;52.374;13.132;2022-10-31T09:42:17;12.37;;;11.07;;
7158;SDS011;63175;52.374;13.132;2022-10-31T09:44:58;18.77;;;11.80;;
7158;SDS011;63175;52.374;13.132;2022-10-31T09:47:36;14.57;;;11.17;;
7158;SDS011;63175;52.374;13.132;2022-10-31T09:50:14;12.93;;;11.63;;
7158;SDS011;63175;52.374;13.132;2022-10-31T09:52:47;20.40;;;11.67;;
7158;SDS011;63175;52.374;13.132;2022-10-31T09:55:21;15.37;;;12.57;;
7158;SDS011;63175;52.374;13.132;2022-10-31T09:57:52;15.47;;;11.90;;
7158;SDS011;63175;52.374;13.132;2022-10-31T10:00:21;18.00;;;11.63;;
7158;SDS011;63175;52.374;13.132;2022-10-31T10:02:51;14.17;;;12.53;;
7158;SDS011;63175;52.374;13.132;2022-10-31T10:05:23;16.90;;;12.07;;
7158;SDS011;63175;52.374;13.132;2022-10-31T10:07:58;19.13;;;12.03;;
7158;SDS011;63175;52.374;13.132;2022-10-31T10:10:31;24.63;;;14.40;;
7158;SDS011;63175;52.374;13.132;2022-10-31T10:13:12;17.40;;;12.30;;
7158;SDS011;63175;52.374;13.132;2022-10-31T10:15:57;13.27;;;11.83;;
7158;SDS011;63175;52.374;13.132;2022-10-31T10:18:35;21.57;;;12.50;;
7158;SDS011;63175;52.374;13.132;2022-10-31T10:21:11;19.87;;;14.07;;
7158;SDS011;63175;52.374;13.132;2022-10-31T10:23:50;17.20;;;13.60;;
7158;SDS011;63175;52.374;13.132;2022-10-31T10:26:25;21.97;;;13.90;;
7158;SDS011;63175;52.374;13.132;2022-10-31T10:29:01;21.90;;;15.00;;
7158;SDS011;63175;52.374;13.132;2022-10-31T10:31:43;20.70;;;13.93;;
7158;SDS011;63175;52.374;13.132;2022-10-31T10:34:15;20.47;;;13.87;;
7158;SDS011;63175;52.374;13.132;2022-10-31T10:36:46;20.27;;;14.57;;
7158;SDS011;63175;52.374;13.132;2022-10-31T10:39:17;24.70;;;16.83;;
7158;SDS011;63175;52.374;13.132;2022-10-31T10:41:47;26.50;;;14.90;;
7158;SDS011;63175;52.374;13.132;2022-10-31T10:44:28;19.37;;;13.70;;
7158;SDS011;63175;52.374;13.132;2022-10-31T10:47:13;14.67;;;10.97;;
7158;SDS011;63175;52.374;13.132;2022-10-31T10:49:59;20.47;;;12.43;;
7158;SDS011;63175;52.374;13.132;2022-10-31T10:52:31;22.47;;;13.70;;
7158;SDS011;63175;52.374;13.132;2022-10-31T10:55:06;18.53;;;11.30;;
7158;SDS011;63175;52.374;13.132;2022-10-31T10:57:45;12.63;;;10.33;;
7158;SDS011;63175;52.374;13.132;2022-10-31T11:00:21;12.67;;;9.40;;
7158;SDS011;63175;52.374;13.132;2022-10-31T11:02:50;9.30;;;8.30;;
7158;SDS011;63175;52.374;13.132;2022-10-31T11:05:20;15.63;;;11.37;;
7158;SDS011;63175;52.374;13.132;2022-10-31T11:07:50;15.10;;;10.87;;
7158;SDS011;63175;52.374;13.132;2022-10-31T11:10:17;19.30;;;13.20;;
7158;SDS011;63175;52.374;13.132;2022-10-31T11:12:45;21.13;;;13.63;;
7158;SDS011;63175;52.374;13.132;2022-10-31T11:15:24;14.73;;;12.00;;
7158;SDS011;63175;52.374;13.132;2022-10-31T11:17:52;22.23;;;12.83;;
7158;SDS011;63175;52.374;13.132;2022-10-31T11:20:27;10.47;;;8.80;;
7158;SDS011;63175;52.374;13.132;2022-10-31T11:23:00;18.60;;;13.10;;
7158;SDS011;63175;52.374;13.132;2022-10-31T11:25:47;23.87;;;12.43;;
7158;SDS011;63175;52.374;13.132;2022-10-31T11:28:15;13.60;;;9.93;;
7158;SDS011;63175;52.374;13.132;2022-10-31T11:30:43;12.80;;;10.33;;
7158;SDS011;63175;52.374;13.132;2022-10-31T11:33:14;23.07;;;14.77;;
7158;SDS011;63175;52.374;13.132;2022-10-31T11:35:46;19.87;;;13.80;;
7158;SDS011;63175;52.374;13.132;2022-10-31T11:38:15;23.70;;;14.13;;
7158;SDS011;63175;52.374;13.132;2022-10-31T11:40:52;24.17;;;14.87;;
7158;SDS011;63175;52.374;13.132;2022-10-31T11:43:21;19.20;;;11.40;;
7158;SDS011;63175;52.374;13.132;2022-10-31T11:45:48;18.27;;;11.43;;
7158;SDS011;63175;52.374;13.132;2022-10-31T11:48:16;20.27;;;12.07;;
7158;SDS011;63175;52.374;13.132;2022-10-31T11:50:52;22.50;;;12.67;;
7158;SDS011;63175;52.374;13.132;2022-10-31T11:53:23;24.23;;;12.30;;
7158;SDS011;63175;52.374;13.132;2022-10-31T11:58:42;15.40;;;11.00;;
7158;SDS011;63175;52.374;13.132;2022-10-31T12:01:19;13.23;;;10.60;;
7158;SDS011;63175;52.374;13.132;2022-10-31T12:03:53;18.77;;;12.27;;
7158;SDS011;63175;52.374;13.132;2022-10-31T12:06:28;27.00;;;14.50;;
7158;SDS011;63175;52.374;13.132;2022-10-31T12:08:57;16.80;;;11.13;;
7158;SDS011;63175;52.374;13.132;2022-10-31T12:11:35;17.43;;;11.80;;
7158;SDS011;63175;52.374;13.132;2022-10-31T12:14:17;21.20;;;13.60;;
7158;SDS011;63175;52.374;13.132;2022-10-31T12:16:53;26.07;;;14.93;;
7158;SDS011;63175;52.374;13.132;2022-10-31T12:19:32;21.37;;;16.10;;
7158;SDS011;63175;52.374;13.132;2022-10-31T12:22:08;26.20;;;17.30;;
7158;SDS011;63175;52.374;13.132;2022-10-31T12:24:45;26.27;;;15.40;;
7158;SDS011;63175;52.374;13.132;2022-10-31T12:27:24;21.10;;;14.97;;
7158;SDS011;63175;52.374;13.132;2022-10-31T12:30:13;26.93;;;18.97;;
7158;SDS011;63175;52.374;13.132;2022-10-31T12:32:55;27.53;;;19.07;;
7158;SDS011;63175;52.374;13.132;2022-10-31T12:35:37;25.40;;;17.53;;
7158;SDS011;63175;52.374;13.132;2022-10-31T12:38:28;25.90;;;18.67;;
7158;SDS011;63175;52.374;13.132;2022-10-31T12:44:06;23.13;;;17.70;;
7158;SDS011;63175;52.374;13.132;2022-10-31T12:46:46;23.30;;;17.93;;
7158;SDS011;63175;52.374;13.132;2022-10-31T12:49:26;23.97;;;16.00;;
7158;SDS011;63175;52.374;13.132;2022-10-31T12:52:10;23.67;;;15.20;;
7158;SDS011;63175;52.374;13.132;2022-10-31T12:55:09;24.07;;;16.90;;
7158;SDS011;63175;52.374;13.132;2022-10-31T12:57:44;32.80;;;20.13;;
7158;SDS011;63175;52.374;13.132;2022-10-31T13:00:14;36.47;;;21.00;;
7158;SDS011;63175;52.374;13.132;2022-10-31T13:02:43;21.77;;;17.87;;
7158;SDS011;63175;52.374;13.132;2022-10-31T13:05:16;19.80;;;16.13;;
7158;SDS011;63175;52.374;13.132;2022-10-31T13:07:49;24.87;;;19.07;;
7158;SDS011;63175;52.374;13.132;2022-10-31T13:10:23;27.20;;;18.97;;
7158;SDS011;63175;52.374;13.132;2022-10-31T13:12:57;26.07;;;20.30;;
7158;SDS011;63175;52.374;13.132;2022-10-31T13:15:28;27.50;;;19.10;;
7158;SDS011;63175;52.374;13.132;2022-10-31T13:18:00;26.60;;;18.90;;
7158;SDS011;63175;52.374;13.132;2022-10-31T13:20:32;29.27;;;21.20;;
7158;SDS011;63175;52.374;13.132;2022-10-31T13:23:03;29.80;;;21.97;;
7158;SDS011;63175;52.374;13.132;2022-10-31T13:25:38;31.90;;;20.13;;
7158;SDS011;63175;52.374;13.132;2022-10-31T13:28:09;31.23;;;21.37;;
7158;SDS011;63175;52.374;13.132;2022-10-31T13:30:47;31.93;;;20.80;;
7158;SDS011;63175;52.374;13.132;2022-10-31T13:33:16;33.57;;;23.43;;
7158;SDS011;63175;52.374;13.132;2022-10-31T13:35:47;33.17;;;22.50;;
7158;SDS011;63175;52.374;13.132;2022-10-31T13:38:21;27.27;;;20.13;;
7158;SDS011;63175;52.374;13.132;2022-10-31T13:41:10;24.03;;;18.23;;
7158;SDS011;63175;52.374;13.132;2022-10-31T13:43:47;21.97;;;16.20;;
7158;SDS011;63175;52.374;13.132;2022-10-31T13:46:25;28.73;;;20.43;;
7158;SDS011;63175;52.374;13.132;2022-10-31T13:49:01;33.73;;;22.07;;
7158;SDS011;63175;52.374;13.132;2022-10-31T13:51:29;34.13;;;22.93;;
7158;SDS011;63175;52.374;13.132;2022-10-31T13:53:59;35.23;;;21.93;;
7158;SDS011;63175;52.374;13.132;2022-10-31T13:56:29;32.77;;;21.13;;
7158;SDS011;63175;52.374;13.132;2022-10-31T13:59:11;29.13;;;21.37;;
7158;SDS011;63175;52.374;13.132;2022-10-31T14:01:48;37.73;;;23.93;;
7158;SDS011;63175;52.374;13.132;2022-10-31T14:04:18;31.53;;;21.80;;
7158;SDS011;63175;52.374;13.132;2022-10-31T14:06:51;27.83;;;19.97;;
7158;SDS011;63175;52.374;13.132;2022-10-31T14:09:25;25.83;;;20.40;;
7158;SDS011;63175;52.374;13.132;2022-10-31T14:11:57;35.40;;;21.67;;
7158;SDS011;63175;52.374;13.132;2022-10-31T14:14:29;38.07;;;24.60;;
7158;SDS011;63175;52.374;13.132;2022-10-31T14:17:00;36.00;;;24.97;;
7158;SDS011;63175;52.374;13.132;2022-10-31T14:19:28;28.90;;;22.67;;
7158;SDS011;63175;52.374;13.132;2022-10-31T14:21:54;24.40;;;19.83;;
7158;SDS011;63175;52.374;13.132;2022-10-31T14:24:32;28.93;;;20.50;;
7158;SDS011;63175;52.374;13.132;2022-10-31T14:27:03;32.73;;;22.80;;
7158;SDS011;63175;52.374;13.132;2022-10-31T14:29:45;26.23;;;19.80;;
7158;SDS011;63175;52.374;13.132;2022-10-31T14:32:16;22.53;;;17.43;;
7158;SDS011;63175;52.374;13.132;2022-10-31T14:34:52;30.33;;;23.67;;
7158;SDS011;63175;52.374;13.132;2022-10-31T14:37:28;27.37;;;20.30;;
7158;SDS011;63175;52.374;13.132;2022-10-31T14:40:29;23.97;;;18.73;;
7158;SDS011;63175;52.374;13.132;2022-10-31T14:46:05;32.43;;;23.33;;
7158;SDS011;63175;52.374;13.132;2022-10-31T14:48:39;28.13;;;21.33;;
7158;SDS011;63175;52.374;13.132;2022-10-31T14:51:18;23.10;;;17.80;;
7158;SDS011;63175;52.374;13.132;2022-10-31T14:53:47;33.17;;;24.23;;
7158;SDS011;63175;52.374;13.132;2022-10-31T14:56:18;27.23;;;21.63;;
7158;SDS011;63175;52.374;13.132;2022-10-31T14:58:51;28.97;;;19.80;;
7158;SDS011;63175;52.374;13.132;2022-10-31T15:01:21;23.97;;;18.93;;
7158;SDS011;63175;52.374;13.132;2022-10-31T15:03:52;32.57;;;21.80;;
7158;SDS011;63175;52.374;13.132;2022-10-31T15:06:21;23.07;;;20.13;;
7158;SDS011;63175;52.374;13.132;2022-10-31T15:08:50;25.13;;;18.33;;